sensor_id;sensor_type;location;lat;lon;timestamp;temperature;humidity
23637;DHT22;11995;50.842;4.456;2023-04-25T00:01:27;9.60;99.90
23637;DHT22;11995;50.842;4.456;2023-04-25T00:03:55;9.70;99.90
23637;DHT22;11995;50.842;4.456;2023-04-25T00:06:23;9.70;99.90
23637;DHT22;11995;50.842;4.456;2023-04-25T00:08:53;9.70;99.90
23637;DHT22;11995;50.842;4.456;2023-04-25T00:11:22;9.70;99.90
23637;DHT22;11995;50.842;4.456;2023-04-25T00:13:50;9.80;99.90
23637;DHT22;11995;50.842;4.456;2023-04-25T00:16:17;9.80;99.90
23637;DHT22;11995;50.842;4.456;2023-04-25T00:18:45;9.70;99.90
23637;DHT22;11995;50.842;4.456;2023-04-25T00:21:18;9.70;99.90
23637;DHT22;11995;50.842;4.456;2023-04-25T00:23:46;9.80;99.90
23637;DHT22;11995;50.842;4.456;2023-04-25T00:26:14;9.70;99.90
23637;DHT22;11995;50.842;4.456;2023-04-25T00:28:41;9.80;99.90
23637;DHT22;11995;50.842;4.456;2023-04-25T00:31:09;9.80;99.90
23637;DHT22;11995;50.842;4.456;2023-04-25T00:33:37;9.70;99.90
23637;DHT22;11995;50.842;4.456;2023-04-25T00:36:04;9.70;99.90
23637;DHT22;11995;50.842;4.456;2023-04-25T00:38:32;9.70;99.90
23637;DHT22;11995;50.842;4.456;2023-04-25T00:41:00;9.70;99.90
23637;DHT22;11995;50.842;4.456;2023-04-25T00:43:28;9.70;99.90
23637;DHT22;11995;50.842;4.456;2023-04-25T00:45:57;9.70;99.90
23637;DHT22;11995;50.842;4.456;2023-04-25T00:48:24;9.60;99.90
23637;DHT22;11995;50.842;4.456;2023-04-25T00:50:54;9.60;99.90
23637;DHT22;11995;50.842;4.456;2023-04-25T00:53:23;9.60;99.90
23637;DHT22;11995;50.842;4.456;2023-04-25T00:55:51;9.40;99.90
23637;DHT22;11995;50.842;4.456;2023-04-25T00:58:20;9.40;99.90
23637;DHT22;11995;50.842;4.456;2023-04-25T01:00:49;9.40;99.90
23637;DHT22;11995;50.842;4.456;2023-04-25T01:03:17;9.50;99.90
23637;DHT22;11995;50.842;4.456;2023-04-25T01:05:47;9.50;99.90
23637;DHT22;11995;50.842;4.456;2023-04-25T01:08:14;9.40;99.90
23637;DHT22;11995;50.842;4.456;2023-04-25T01:10:42;9.40;99.90
23637;DHT22;11995;50.842;4.456;2023-04-25T01:13:10;9.30;99.90
23637;DHT22;11995;50.842;4.456;2023-04-25T01:15:37;9.30;99.90
23637;DHT22;11995;50.842;4.456;2023-04-25T01:18:05;9.40;99.90
23637;DHT22;11995;50.842;4.456;2023-04-25T01:20:33;9.40;99.90
23637;DHT22;11995;50.842;4.456;2023-04-25T01:23:02;9.40;99.90
23637;DHT22;11995;50.842;4.456;2023-04-25T01:25:30;9.40;99.90
23637;DHT22;11995;50.842;4.456;2023-04-25T01:27:59;9.40;99.90
23637;DHT22;11995;50.842;4.456;2023-04-25T01:30:27;9.30;99.90
23637;DHT22;11995;50.842;4.456;2023-04-25T01:32:57;9.30;99.90
23637;DHT22;11995;50.842;4.456;2023-04-25T01:35:25;9.30;99.90
23637;DHT22;11995;50.842;4.456;2023-04-25T01:37:52;9.30;99.90
23637;DHT22;11995;50.842;4.456;2023-04-25T01:40:21;9.30;99.90
23637;DHT22;11995;50.842;4.456;2023-04-25T01:42:48;9.30;99.90
23637;DHT22;11995;50.842;4.456;2023-04-25T01:45:16;9.30;99.90
23637;DHT22;11995;50.842;4.456;2023-04-25T01:47:44;9.30;99.90
23637;DHT22;11995;50.842;4.456;2023-04-25T01:50:14;9.30;99.90
23637;DHT22;11995;50.842;4.456;2023-04-25T01:52:43;9.30;99.90
23637;DHT22;11995;50.842;4.456;2023-04-25T01:55:13;9.30;99.90
23637;DHT22;11995;50.842;4.456;2023-04-25T01:57:40;9.30;99.90
23637;DHT22;11995;50.842;4.456;2023-04-25T02:00:09;9.10;99.90
23637;DHT22;11995;50.842;4.456;2023-04-25T02:02:37;9.10;99.90
23637;DHT22;11995;50.842;4.456;2023-04-25T02:05:04;9.00;99.90
23637;DHT22;11995;50.842;4.456;2023-04-25T02:07:32;8.90;99.90
23637;DHT22;11995;50.842;4.456;2023-04-25T02:10:00;8.70;99.90
23637;DHT22;11995;50.842;4.456;2023-04-25T02:12:27;8.80;99.90
23637;DHT22;11995;50.842;4.456;2023-04-25T02:14:55;8.70;99.90
23637;DHT22;11995;50.842;4.456;2023-04-25T02:17:22;8.70;99.90
23637;DHT22;11995;50.842;4.456;2023-04-25T02:19:50;8.60;99.90
23637;DHT22;11995;50.842;4.456;2023-04-25T02:22:17;8.60;99.90
23637;DHT22;11995;50.842;4.456;2023-04-25T02:24:46;8.80;99.90
23637;DHT22;11995;50.842;4.456;2023-04-25T02:27:13;8.80;99.90
23637;DHT22;11995;50.842;4.456;2023-04-25T02:29:41;8.90;99.90
23637;DHT22;11995;50.842;4.456;2023-04-25T02:32:08;9.10;99.90
23637;DHT22;11995;50.842;4.456;2023-04-25T02:34:36;9.20;99.90
23637;DHT22;11995;50.842;4.456;2023-04-25T02:37:03;9.20;99.90
23637;DHT22;11995;50.842;4.456;2023-04-25T02:39:31;9.30;99.90
23637;DHT22;11995;50.842;4.456;2023-04-25T02:41:58;9.30;99.90
23637;DHT22;11995;50.842;4.456;2023-04-25T02:44:27;9.20;99.90
23637;DHT22;11995;50.842;4.456;2023-04-25T02:46:54;9.20;99.90
23637;DHT22;11995;50.842;4.456;2023-04-25T02:49:22;9.10;99.90
23637;DHT22;11995;50.842;4.456;2023-04-25T02:51:49;9.10;99.90
23637;DHT22;11995;50.842;4.456;2023-04-25T02:54:17;9.10;99.90
23637;DHT22;11995;50.842;4.456;2023-04-25T02:56:44;9.10;99.90
23637;DHT22;11995;50.842;4.456;2023-04-25T02:59:12;9.00;99.90
23637;DHT22;11995;50.842;4.456;2023-04-25T03:01:39;8.90;99.90
23637;DHT22;11995;50.842;4.456;2023-04-25T03:04:07;9.00;99.90
23637;DHT22;11995;50.842;4.456;2023-04-25T03:06:34;8.90;99.90
23637;DHT22;11995;50.842;4.456;2023-04-25T03:09:02;8.90;99.90
23637;DHT22;11995;50.842;4.456;2023-04-25T03:11:30;8.90;99.90
23637;DHT22;11995;50.842;4.456;2023-04-25T03:13:57;8.90;99.90
23637;DHT22;11995;50.842;4.456;2023-04-25T03:16:25;8.80;99.90
23637;DHT22;11995;50.842;4.456;2023-04-25T03:18:53;8.80;99.90
23637;DHT22;11995;50.842;4.456;2023-04-25T03:21:21;8.80;99.90
23637;DHT22;11995;50.842;4.456;2023-04-25T03:23:48;8.80;99.90
23637;DHT22;11995;50.842;4.456;2023-04-25T03:26:18;8.80;99.90
23637;DHT22;11995;50.842;4.456;2023-04-25T03:28:46;8.90;99.90
23637;DHT22;11995;50.842;4.456;2023-04-25T03:31:15;8.90;99.90
23637;DHT22;11995;50.842;4.456;2023-04-25T03:33:44;8.80;99.90
23637;DHT22;11995;50.842;4.456;2023-04-25T03:36:11;8.70;99.90
23637;DHT22;11995;50.842;4.456;2023-04-25T03:38:39;8.60;99.90
23637;DHT22;11995;50.842;4.456;2023-04-25T03:41:08;8.40;99.90
23637;DHT22;11995;50.842;4.456;2023-04-25T03:43:35;8.50;99.90
23637;DHT22;11995;50.842;4.456;2023-04-25T03:46:04;8.40;99.90
23637;DHT22;11995;50.842;4.456;2023-04-25T03:48:32;8.40;99.90
23637;DHT22;11995;50.842;4.456;2023-04-25T03:50:59;8.40;99.90
23637;DHT22;11995;50.842;4.456;2023-04-25T03:53:27;8.30;99.90
23637;DHT22;11995;50.842;4.456;2023-04-25T03:55:54;8.30;99.90
23637;DHT22;11995;50.842;4.456;2023-04-25T03:58:22;8.50;99.90
23637;DHT22;11995;50.842;4.456;2023-04-25T04:00:50;8.40;99.90
23637;DHT22;11995;50.842;4.456;2023-04-25T04:03:18;8.30;99.90
23637;DHT22;11995;50.842;4.456;2023-04-25T04:05:46;8.00;99.90
23637;DHT22;11995;50.842;4.456;2023-04-25T04:08:14;8.10;99.90
23637;DHT22;11995;50.842;4.456;2023-04-25T04:10:41;8.00;99.90
23637;DHT22;11995;50.842;4.456;2023-04-25T04:13:09;7.90;99.90
23637;DHT22;11995;50.842;4.456;2023-04-25T04:15:36;8.00;99.90
23637;DHT22;11995;50.842;4.456;2023-04-25T04:18:04;8.10;99.90
23637;DHT22;11995;50.842;4.456;2023-04-25T04:20:32;8.20;99.90
23637;DHT22;11995;50.842;4.456;2023-04-25T04:23:00;8.20;99.90
23637;DHT22;11995;50.842;4.456;2023-04-25T04:25:27;8.30;99.90
23637;DHT22;11995;50.842;4.456;2023-04-25T04:27:55;8.30;99.90
23637;DHT22;11995;50.842;4.456;2023-04-25T04:30:23;8.30;99.90
23637;DHT22;11995;50.842;4.456;2023-04-25T04:32:51;8.30;99.90
23637;DHT22;11995;50.842;4.456;2023-04-25T04:35:18;8.20;99.90
23637;DHT22;11995;50.842;4.456;2023-04-25T04:37:46;8.20;99.90
23637;DHT22;11995;50.842;4.456;2023-04-25T04:40:15;8.10;99.90
23637;DHT22;11995;50.842;4.456;2023-04-25T04:42:43;8.20;99.90
23637;DHT22;11995;50.842;4.456;2023-04-25T04:45:12;8.40;99.90
23637;DHT22;11995;50.842;4.456;2023-04-25T04:47:40;8.40;99.90
23637;DHT22;11995;50.842;4.456;2023-04-25T04:50:09;8.30;99.90
23637;DHT22;11995;50.842;4.456;2023-04-25T04:52:37;8.30;99.90
23637;DHT22;11995;50.842;4.456;2023-04-25T04:55:06;8.40;99.90
23637;DHT22;11995;50.842;4.456;2023-04-25T04:57:35;8.30;99.90
23637;DHT22;11995;50.842;4.456;2023-04-25T05:00:03;8.30;99.90
23637;DHT22;11995;50.842;4.456;2023-04-25T05:02:38;8.30;99.90
23637;DHT22;11995;50.842;4.456;2023-04-25T05:05:09;8.20;99.90
23637;DHT22;11995;50.842;4.456;2023-04-25T05:07:38;8.20;99.90
23637;DHT22;11995;50.842;4.456;2023-04-25T05:10:06;8.20;99.90
23637;DHT22;11995;50.842;4.456;2023-04-25T05:12:34;8.20;99.90
23637;DHT22;11995;50.842;4.456;2023-04-25T05:15:03;8.20;99.90
23637;DHT22;11995;50.842;4.456;2023-04-25T05:17:31;8.00;99.90
23637;DHT22;11995;50.842;4.456;2023-04-25T05:19:59;8.00;99.90
23637;DHT22;11995;50.842;4.456;2023-04-25T05:22:26;8.00;99.90
23637;DHT22;11995;50.842;4.456;2023-04-25T05:24:54;7.90;99.90
23637;DHT22;11995;50.842;4.456;2023-04-25T05:27:21;7.50;99.90
23637;DHT22;11995;50.842;4.456;2023-04-25T05:29:49;7.70;99.90
23637;DHT22;11995;50.842;4.456;2023-04-25T05:32:16;7.80;99.90
23637;DHT22;11995;50.842;4.456;2023-04-25T05:34:44;7.90;99.90
23637;DHT22;11995;50.842;4.456;2023-04-25T05:37:12;7.90;99.90
23637;DHT22;11995;50.842;4.456;2023-04-25T05:39:39;7.90;99.90
23637;DHT22;11995;50.842;4.456;2023-04-25T05:42:06;7.80;99.90
23637;DHT22;11995;50.842;4.456;2023-04-25T05:44:34;7.90;99.90
23637;DHT22;11995;50.842;4.456;2023-04-25T05:47:01;7.90;99.90
23637;DHT22;11995;50.842;4.456;2023-04-25T05:49:31;7.90;99.90
23637;DHT22;11995;50.842;4.456;2023-04-25T05:51:58;7.90;99.90
23637;DHT22;11995;50.842;4.456;2023-04-25T05:54:26;8.00;99.90
23637;DHT22;11995;50.842;4.456;2023-04-25T05:56:53;8.00;99.90
23637;DHT22;11995;50.842;4.456;2023-04-25T05:59:21;8.00;99.90
23637;DHT22;11995;50.842;4.456;2023-04-25T06:01:48;7.90;99.90
23637;DHT22;11995;50.842;4.456;2023-04-25T06:04:16;7.90;99.90
23637;DHT22;11995;50.842;4.456;2023-04-25T06:06:44;8.00;99.90
23637;DHT22;11995;50.842;4.456;2023-04-25T06:09:13;8.10;99.90
23637;DHT22;11995;50.842;4.456;2023-04-25T06:11:40;8.10;99.90
23637;DHT22;11995;50.842;4.456;2023-04-25T06:14:08;8.00;99.90
23637;DHT22;11995;50.842;4.456;2023-04-25T06:16:36;8.00;99.90
23637;DHT22;11995;50.842;4.456;2023-04-25T06:19:04;8.00;99.90
23637;DHT22;11995;50.842;4.456;2023-04-25T06:21:31;8.20;99.90
23637;DHT22;11995;50.842;4.456;2023-04-25T06:23:59;8.20;99.90
23637;DHT22;11995;50.842;4.456;2023-04-25T06:26:26;8.20;99.90
23637;DHT22;11995;50.842;4.456;2023-04-25T06:28:54;8.30;99.90
23637;DHT22;11995;50.842;4.456;2023-04-25T06:31:21;8.40;99.90
23637;DHT22;11995;50.842;4.456;2023-04-25T06:33:49;8.50;99.90
23637;DHT22;11995;50.842;4.456;2023-04-25T06:36:16;8.50;99.90
23637;DHT22;11995;50.842;4.456;2023-04-25T06:38:44;8.50;99.90
23637;DHT22;11995;50.842;4.456;2023-04-25T06:41:11;8.60;99.90
23637;DHT22;11995;50.842;4.456;2023-04-25T06:43:39;8.70;99.90
23637;DHT22;11995;50.842;4.456;2023-04-25T06:46:06;8.80;99.90
23637;DHT22;11995;50.842;4.456;2023-04-25T06:48:34;8.90;99.90
23637;DHT22;11995;50.842;4.456;2023-04-25T06:51:02;8.80;99.90
23637;DHT22;11995;50.842;4.456;2023-04-25T06:53:29;9.00;99.90
23637;DHT22;11995;50.842;4.456;2023-04-25T06:55:57;9.00;99.90
23637;DHT22;11995;50.842;4.456;2023-04-25T06:58:24;9.10;99.90
23637;DHT22;11995;50.842;4.456;2023-04-25T07:00:52;9.20;99.90
23637;DHT22;11995;50.842;4.456;2023-04-25T07:03:20;9.20;99.90
23637;DHT22;11995;50.842;4.456;2023-04-25T07:05:47;9.10;99.90
23637;DHT22;11995;50.842;4.456;2023-04-25T07:08:15;9.00;99.90
23637;DHT22;11995;50.842;4.456;2023-04-25T07:10:44;8.90;99.90
23637;DHT22;11995;50.842;4.456;2023-04-25T07:13:12;8.80;99.90
23637;DHT22;11995;50.842;4.456;2023-04-25T07:15:40;8.70;99.90
23637;DHT22;11995;50.842;4.456;2023-04-25T07:18:08;8.70;99.90
23637;DHT22;11995;50.842;4.456;2023-04-25T07:20:37;8.80;99.90
23637;DHT22;11995;50.842;4.456;2023-04-25T07:23:04;8.90;99.90
23637;DHT22;11995;50.842;4.456;2023-04-25T07:25:32;9.00;99.90
23637;DHT22;11995;50.842;4.456;2023-04-25T07:27:59;9.00;99.90
23637;DHT22;11995;50.842;4.456;2023-04-25T07:30:27;9.10;99.90
23637;DHT22;11995;50.842;4.456;2023-04-25T07:32:55;9.00;99.90
23637;DHT22;11995;50.842;4.456;2023-04-25T07:35:23;9.00;99.90
23637;DHT22;11995;50.842;4.456;2023-04-25T07:37:50;9.10;99.90
23637;DHT22;11995;50.842;4.456;2023-04-25T07:40:18;9.10;99.90
23637;DHT22;11995;50.842;4.456;2023-04-25T07:42:46;9.00;99.90
23637;DHT22;11995;50.842;4.456;2023-04-25T07:45:14;9.10;99.90
23637;DHT22;11995;50.842;4.456;2023-04-25T07:47:41;9.30;99.90
23637;DHT22;11995;50.842;4.456;2023-04-25T07:50:09;9.40;99.90
23637;DHT22;11995;50.842;4.456;2023-04-25T07:52:37;9.40;99.90
23637;DHT22;11995;50.842;4.456;2023-04-25T07:55:05;9.40;99.90
23637;DHT22;11995;50.842;4.456;2023-04-25T07:57:32;9.40;99.90
23637;DHT22;11995;50.842;4.456;2023-04-25T08:00:00;9.50;99.90
23637;DHT22;11995;50.842;4.456;2023-04-25T08:02:27;9.40;99.90
23637;DHT22;11995;50.842;4.456;2023-04-25T08:04:55;9.30;99.90
23637;DHT22;11995;50.842;4.456;2023-04-25T08:07:23;9.50;99.90
23637;DHT22;11995;50.842;4.456;2023-04-25T08:09:50;9.60;99.90
23637;DHT22;11995;50.842;4.456;2023-04-25T08:12:17;9.70;99.90
23637;DHT22;11995;50.842;4.456;2023-04-25T08:14:45;9.80;99.90
23637;DHT22;11995;50.842;4.456;2023-04-25T08:17:13;9.70;99.90
23637;DHT22;11995;50.842;4.456;2023-04-25T08:19:42;9.70;99.90
23637;DHT22;11995;50.842;4.456;2023-04-25T08:22:09;9.90;99.90
23637;DHT22;11995;50.842;4.456;2023-04-25T08:24:37;10.30;99.90
23637;DHT22;11995;50.842;4.456;2023-04-25T08:27:04;10.60;99.90
23637;DHT22;11995;50.842;4.456;2023-04-25T08:29:34;10.70;99.90
23637;DHT22;11995;50.842;4.456;2023-04-25T08:32:02;10.80;99.90
23637;DHT22;11995;50.842;4.456;2023-04-25T08:34:29;10.60;99.90
23637;DHT22;11995;50.842;4.456;2023-04-25T08:36:57;10.40;99.90
23637;DHT22;11995;50.842;4.456;2023-04-25T08:39:24;10.30;99.90
23637;DHT22;11995;50.842;4.456;2023-04-25T08:41:53;10.40;99.90
23637;DHT22;11995;50.842;4.456;2023-04-25T08:44:21;10.60;99.90
23637;DHT22;11995;50.842;4.456;2023-04-25T08:46:49;10.60;99.90
23637;DHT22;11995;50.842;4.456;2023-04-25T08:49:18;10.50;99.90
23637;DHT22;11995;50.842;4.456;2023-04-25T08:51:47;10.60;99.90
23637;DHT22;11995;50.842;4.456;2023-04-25T08:54:17;10.90;99.90
23637;DHT22;11995;50.842;4.456;2023-04-25T08:56:48;11.20;99.90
23637;DHT22;11995;50.842;4.456;2023-04-25T08:59:17;10.90;99.90
23637;DHT22;11995;50.842;4.456;2023-04-25T09:01:44;10.70;99.90
23637;DHT22;11995;50.842;4.456;2023-04-25T09:04:14;10.50;99.90
23637;DHT22;11995;50.842;4.456;2023-04-25T09:06:42;10.50;99.90
23637;DHT22;11995;50.842;4.456;2023-04-25T09:09:09;10.40;99.90
23637;DHT22;11995;50.842;4.456;2023-04-25T09:11:37;10.60;99.90
23637;DHT22;11995;50.842;4.456;2023-04-25T09:14:19;10.80;99.90
23637;DHT22;11995;50.842;4.456;2023-04-25T09:19:28;10.80;99.90
23637;DHT22;11995;50.842;4.456;2023-04-25T09:21:58;10.50;99.90
23637;DHT22;11995;50.842;4.456;2023-04-25T09:27:01;10.50;99.90
23637;DHT22;11995;50.842;4.456;2023-04-25T09:29:35;10.40;99.90
23637;DHT22;11995;50.842;4.456;2023-04-25T09:32:15;10.30;99.90
23637;DHT22;11995;50.842;4.456;2023-04-25T09:34:43;10.30;99.90
23637;DHT22;11995;50.842;4.456;2023-04-25T09:37:11;10.50;99.90
23637;DHT22;11995;50.842;4.456;2023-04-25T09:39:39;10.50;99.90
23637;DHT22;11995;50.842;4.456;2023-04-25T09:42:07;10.60;99.90
23637;DHT22;11995;50.842;4.456;2023-04-25T09:44:38;10.50;99.90
23637;DHT22;11995;50.842;4.456;2023-04-25T09:47:09;10.30;99.90
23637;DHT22;11995;50.842;4.456;2023-04-25T09:49:38;10.40;99.90
23637;DHT22;11995;50.842;4.456;2023-04-25T09:52:07;10.50;99.90
23637;DHT22;11995;50.842;4.456;2023-04-25T09:54:34;10.50;99.90
23637;DHT22;11995;50.842;4.456;2023-04-25T09:57:14;10.60;99.90
23637;DHT22;11995;50.842;4.456;2023-04-25T09:59:35;10.80;99.90
23637;DHT22;11995;50.842;4.456;2023-04-25T10:02:05;11.00;99.90
23637;DHT22;11995;50.842;4.456;2023-04-25T10:04:35;11.20;99.90
23637;DHT22;11995;50.842;4.456;2023-04-25T10:07:07;11.10;99.90
23637;DHT22;11995;50.842;4.456;2023-04-25T10:09:36;11.20;99.90
23637;DHT22;11995;50.842;4.456;2023-04-25T10:12:07;10.90;99.90
23637;DHT22;11995;50.842;4.456;2023-04-25T10:14:36;10.70;99.90
23637;DHT22;11995;50.842;4.456;2023-04-25T10:17:04;10.50;99.90
23637;DHT22;11995;50.842;4.456;2023-04-25T10:19:31;10.40;99.90
23637;DHT22;11995;50.842;4.456;2023-04-25T10:22:05;10.50;99.90
23637;DHT22;11995;50.842;4.456;2023-04-25T10:24:32;10.70;99.90
23637;DHT22;11995;50.842;4.456;2023-04-25T10:27:01;11.00;99.90
23637;DHT22;11995;50.842;4.456;2023-04-25T10:29:29;11.20;99.90
23637;DHT22;11995;50.842;4.456;2023-04-25T10:31:57;11.00;99.90
23637;DHT22;11995;50.842;4.456;2023-04-25T10:34:39;11.00;99.90
23637;DHT22;11995;50.842;4.456;2023-04-25T10:37:11;11.10;99.90
23637;DHT22;11995;50.842;4.456;2023-04-25T10:39:42;11.20;99.90
23637;DHT22;11995;50.842;4.456;2023-04-25T10:42:10;11.40;99.90
23637;DHT22;11995;50.842;4.456;2023-04-25T10:44:38;11.60;99.90
23637;DHT22;11995;50.842;4.456;2023-04-25T10:47:07;11.70;99.90
23637;DHT22;11995;50.842;4.456;2023-04-25T10:49:37;11.80;99.90
23637;DHT22;11995;50.842;4.456;2023-04-25T10:52:26;11.80;99.90
23637;DHT22;11995;50.842;4.456;2023-04-25T10:54:57;11.50;99.90
23637;DHT22;11995;50.842;4.456;2023-04-25T10:57:39;11.30;99.90
23637;DHT22;11995;50.842;4.456;2023-04-25T11:00:20;11.30;99.90
23637;DHT22;11995;50.842;4.456;2023-04-25T11:02:57;11.30;99.90
23637;DHT22;11995;50.842;4.456;2023-04-25T11:05:31;11.20;99.90
23637;DHT22;11995;50.842;4.456;2023-04-25T11:07:59;11.40;99.90
23637;DHT22;11995;50.842;4.456;2023-04-25T11:10:29;11.40;99.90
23637;DHT22;11995;50.842;4.456;2023-04-25T11:12:58;11.40;99.90
23637;DHT22;11995;50.842;4.456;2023-04-25T11:15:26;11.30;99.90
23637;DHT22;11995;50.842;4.456;2023-04-25T11:17:56;11.30;99.90
23637;DHT22;11995;50.842;4.456;2023-04-25T11:20:25;11.40;99.90
23637;DHT22;11995;50.842;4.456;2023-04-25T11:23:00;11.50;99.90
23637;DHT22;11995;50.842;4.456;2023-04-25T11:25:28;11.30;99.90
23637;DHT22;11995;50.842;4.456;2023-04-25T11:27:58;11.10;99.90
23637;DHT22;11995;50.842;4.456;2023-04-25T11:30:28;11.30;99.90
23637;DHT22;11995;50.842;4.456;2023-04-25T11:32:57;11.20;99.90
23637;DHT22;11995;50.842;4.456;2023-04-25T11:35:25;11.10;99.90
23637;DHT22;11995;50.842;4.456;2023-04-25T11:37:52;11.10;99.90
23637;DHT22;11995;50.842;4.456;2023-04-25T11:40:20;11.20;99.90
23637;DHT22;11995;50.842;4.456;2023-04-25T11:42:48;11.30;99.90
23637;DHT22;11995;50.842;4.456;2023-04-25T11:45:15;11.40;99.90
23637;DHT22;11995;50.842;4.456;2023-04-25T11:47:45;11.60;99.90
23637;DHT22;11995;50.842;4.456;2023-04-25T11:50:13;11.70;99.90
23637;DHT22;11995;50.842;4.456;2023-04-25T11:52:43;11.90;99.90
23637;DHT22;11995;50.842;4.456;2023-04-25T11:55:19;12.10;99.90
23637;DHT22;11995;50.842;4.456;2023-04-25T11:57:48;12.00;99.90
23637;DHT22;11995;50.842;4.456;2023-04-25T12:00:19;11.60;99.90
23637;DHT22;11995;50.842;4.456;2023-04-25T12:02:52;11.30;99.90
23637;DHT22;11995;50.842;4.456;2023-04-25T12:05:23;11.30;99.90
23637;DHT22;11995;50.842;4.456;2023-04-25T12:07:49;11.10;99.90
23637;DHT22;11995;50.842;4.456;2023-04-25T12:10:18;11.00;99.90
23637;DHT22;11995;50.842;4.456;2023-04-25T12:12:49;10.90;99.90
23637;DHT22;11995;50.842;4.456;2023-04-25T12:15:24;11.10;99.90
23637;DHT22;11995;50.842;4.456;2023-04-25T12:17:53;11.40;99.90
23637;DHT22;11995;50.842;4.456;2023-04-25T12:20:25;11.50;99.90
23637;DHT22;11995;50.842;4.456;2023-04-25T12:22:53;11.40;99.90
23637;DHT22;11995;50.842;4.456;2023-04-25T12:25:41;11.50;99.90
23637;DHT22;11995;50.842;4.456;2023-04-25T12:28:17;11.60;99.90
23637;DHT22;11995;50.842;4.456;2023-04-25T12:31:06;11.80;99.90
23637;DHT22;11995;50.842;4.456;2023-04-25T12:33:37;12.00;99.90
23637;DHT22;11995;50.842;4.456;2023-04-25T12:36:06;11.80;99.90
23637;DHT22;11995;50.842;4.456;2023-04-25T12:38:40;11.70;99.90
23637;DHT22;11995;50.842;4.456;2023-04-25T12:41:08;11.90;99.90
23637;DHT22;11995;50.842;4.456;2023-04-25T12:43:36;11.80;99.90
23637;DHT22;11995;50.842;4.456;2023-04-25T12:46:04;11.90;99.90
23637;DHT22;11995;50.842;4.456;2023-04-25T12:48:31;12.00;99.90
23637;DHT22;11995;50.842;4.456;2023-04-25T12:50:59;12.30;99.90
23637;DHT22;11995;50.842;4.456;2023-04-25T12:53:26;12.30;99.90
23637;DHT22;11995;50.842;4.456;2023-04-25T12:55:54;12.10;99.90
23637;DHT22;11995;50.842;4.456;2023-04-25T12:58:22;12.00;99.90
23637;DHT22;11995;50.842;4.456;2023-04-25T13:00:50;12.20;99.90
23637;DHT22;11995;50.842;4.456;2023-04-25T13:03:17;12.30;99.90
23637;DHT22;11995;50.842;4.456;2023-04-25T13:05:45;12.30;99.90
23637;DHT22;11995;50.842;4.456;2023-04-25T13:08:12;11.90;99.90
23637;DHT22;11995;50.842;4.456;2023-04-25T13:10:40;11.80;99.90
23637;DHT22;11995;50.842;4.456;2023-04-25T13:13:08;11.70;99.90
23637;DHT22;11995;50.842;4.456;2023-04-25T13:15:35;11.70;99.90
23637;DHT22;11995;50.842;4.456;2023-04-25T13:18:04;11.60;99.90
23637;DHT22;11995;50.842;4.456;2023-04-25T13:20:36;11.60;99.90
23637;DHT22;11995;50.842;4.456;2023-04-25T13:23:03;11.30;99.90
23637;DHT22;11995;50.842;4.456;2023-04-25T13:25:31;11.40;99.90
23637;DHT22;11995;50.842;4.456;2023-04-25T13:27:58;11.50;99.90
23637;DHT22;11995;50.842;4.456;2023-04-25T13:30:26;11.50;99.90
23637;DHT22;11995;50.842;4.456;2023-04-25T13:32:54;11.40;99.90
23637;DHT22;11995;50.842;4.456;2023-04-25T13:35:23;11.60;99.90
23637;DHT22;11995;50.842;4.456;2023-04-25T13:37:51;11.70;99.90
23637;DHT22;11995;50.842;4.456;2023-04-25T13:40:18;11.50;99.90
23637;DHT22;11995;50.842;4.456;2023-04-25T13:42:46;11.60;99.90
23637;DHT22;11995;50.842;4.456;2023-04-25T13:45:13;11.70;99.90
23637;DHT22;11995;50.842;4.456;2023-04-25T13:47:41;11.80;99.90
23637;DHT22;11995;50.842;4.456;2023-04-25T13:50:09;11.90;99.90
23637;DHT22;11995;50.842;4.456;2023-04-25T13:52:36;11.80;99.90
23637;DHT22;11995;50.842;4.456;2023-04-25T13:55:04;12.00;99.90
23637;DHT22;11995;50.842;4.456;2023-04-25T13:57:33;12.00;99.90
23637;DHT22;11995;50.842;4.456;2023-04-25T14:00:00;12.20;99.90
23637;DHT22;11995;50.842;4.456;2023-04-25T14:02:30;12.20;99.90
23637;DHT22;11995;50.842;4.456;2023-04-25T14:04:57;12.30;99.90
23637;DHT22;11995;50.842;4.456;2023-04-25T14:07:25;12.00;99.90
23637;DHT22;11995;50.842;4.456;2023-04-25T14:09:53;11.50;99.90
23637;DHT22;11995;50.842;4.456;2023-04-25T14:12:22;11.50;99.90
23637;DHT22;11995;50.842;4.456;2023-04-25T14:14:51;11.40;99.90
23637;DHT22;11995;50.842;4.456;2023-04-25T14:17:20;11.60;99.90
23637;DHT22;11995;50.842;4.456;2023-04-25T14:19:49;11.60;99.90
23637;DHT22;11995;50.842;4.456;2023-04-25T14:22:17;11.50;99.90
23637;DHT22;11995;50.842;4.456;2023-04-25T14:24:45;11.50;99.90
23637;DHT22;11995;50.842;4.456;2023-04-25T14:27:13;11.60;99.90
23637;DHT22;11995;50.842;4.456;2023-04-25T14:29:40;11.90;99.90
23637;DHT22;11995;50.842;4.456;2023-04-25T14:32:09;11.90;99.90
23637;DHT22;11995;50.842;4.456;2023-04-25T14:34:37;12.10;99.90
23637;DHT22;11995;50.842;4.456;2023-04-25T14:37:04;12.00;99.90
23637;DHT22;11995;50.842;4.456;2023-04-25T14:39:32;11.80;99.90
23637;DHT22;11995;50.842;4.456;2023-04-25T14:41:59;11.70;99.90
23637;DHT22;11995;50.842;4.456;2023-04-25T14:44:27;11.70;99.90
23637;DHT22;11995;50.842;4.456;2023-04-25T14:46:55;12.00;99.90
23637;DHT22;11995;50.842;4.456;2023-04-25T14:49:23;11.80;99.90
23637;DHT22;11995;50.842;4.456;2023-04-25T14:51:50;11.70;99.90
23637;DHT22;11995;50.842;4.456;2023-04-25T14:54:18;11.70;99.90
23637;DHT22;11995;50.842;4.456;2023-04-25T14:56:45;11.70;99.90
23637;DHT22;11995;50.842;4.456;2023-04-25T14:59:13;11.60;99.90
23637;DHT22;11995;50.842;4.456;2023-04-25T15:01:40;11.70;99.90
23637;DHT22;11995;50.842;4.456;2023-04-25T15:04:08;11.40;99.90
23637;DHT22;11995;50.842;4.456;2023-04-25T15:06:37;11.20;99.90
23637;DHT22;11995;50.842;4.456;2023-04-25T15:09:04;11.20;99.90
23637;DHT22;11995;50.842;4.456;2023-04-25T15:11:32;11.20;99.90
23637;DHT22;11995;50.842;4.456;2023-04-25T15:14:00;11.40;99.90
23637;DHT22;11995;50.842;4.456;2023-04-25T15:16:27;11.50;99.90
23637;DHT22;11995;50.842;4.456;2023-04-25T15:18:55;11.20;99.90
23637;DHT22;11995;50.842;4.456;2023-04-25T15:21:22;11.30;99.90
23637;DHT22;11995;50.842;4.456;2023-04-25T15:23:51;11.30;99.90
23637;DHT22;11995;50.842;4.456;2023-04-25T15:26:19;11.30;99.90
23637;DHT22;11995;50.842;4.456;2023-04-25T15:28:46;11.40;99.90
23637;DHT22;11995;50.842;4.456;2023-04-25T15:31:15;11.40;99.90
23637;DHT22;11995;50.842;4.456;2023-04-25T15:33:42;11.20;99.90
23637;DHT22;11995;50.842;4.456;2023-04-25T15:36:10;11.20;99.90
23637;DHT22;11995;50.842;4.456;2023-04-25T15:38:37;11.20;99.90
23637;DHT22;11995;50.842;4.456;2023-04-25T15:41:05;11.30;99.90
23637;DHT22;11995;50.842;4.456;2023-04-25T15:43:32;11.20;99.90
23637;DHT22;11995;50.842;4.456;2023-04-25T15:46:02;11.30;99.90
23637;DHT22;11995;50.842;4.456;2023-04-25T15:48:29;11.50;99.90
23637;DHT22;11995;50.842;4.456;2023-04-25T15:50:59;11.80;99.90
23637;DHT22;11995;50.842;4.456;2023-04-25T15:53:26;11.80;99.90